createdAt,value
2022-10-23T00:01:45.166Z,6.32
2022-10-23T00:04:17.460Z,7.22
2022-10-23T00:06:45.584Z,2.70
2022-10-23T00:09:17.553Z,2.95
2022-10-23T00:11:50.247Z,3.30
2022-10-23T00:14:23.001Z,2.83
2022-10-23T00:16:51.086Z,3.17
2022-10-23T00:19:19.184Z,3.25
2022-10-23T00:21:46.801Z,3.42
2022-10-23T00:24:14.686Z,6.45
2022-10-23T00:26:42.419Z,2.80
2022-10-23T00:29:12.421Z,3.25
2022-10-23T00:32:05.538Z,4.88
2022-10-23T00:34:33.540Z,2.83
2022-10-23T00:37:01.024Z,2.92
2022-10-23T00:39:28.893Z,5.63
2022-10-23T00:41:56.901Z,2.28
2022-10-23T00:44:24.495Z,7.60
2022-10-23T00:46:51.984Z,3.30
2022-10-23T00:49:20.518Z,3.83
2022-10-23T00:51:55.974Z,2.25
2022-10-23T00:54:27.579Z,1.95
2022-10-23T00:57:01.978Z,1.95
2022-10-23T00:59:31.124Z,2.58
2022-10-23T01:04:29.380Z,1.63
2022-10-23T01:07:35.462Z,5.53
2022-10-23T01:10:20.080Z,2.40
2022-10-23T01:13:55.346Z,4.75
2022-10-23T01:16:57.722Z,4.28
2022-10-23T01:20:01.373Z,1.88
2022-10-23T01:22:35.659Z,1.80
2022-10-23T01:25:36.504Z,2.55
2022-10-23T01:28:16.246Z,3.08
2022-10-23T01:30:45.338Z,2.40
2022-10-23T01:33:27.452Z,1.90
2022-10-23T01:36:06.926Z,2.20
2022-10-23T01:38:51.489Z,1.83
2022-10-23T01:41:36.504Z,1.90
2022-10-23T01:44:28.529Z,1.80
2022-10-23T01:46:57.830Z,2.45
2022-10-23T01:49:30.024Z,12.27
2022-10-23T01:52:03.778Z,4.10
2022-10-23T01:54:36.434Z,1.63
2022-10-23T01:57:07.756Z,2.63
2022-10-23T01:59:41.953Z,2.53
2022-10-23T02:02:13.683Z,2.47
2022-10-23T02:05:08.470Z,6.10
2022-10-23T02:07:37.016Z,3.10
2022-10-23T02:10:10.169Z,3.42
2022-10-23T02:13:07.437Z,2.50
2022-10-23T02:15:43.884Z,2.58
2022-10-23T02:18:51.233Z,1.90
2022-10-23T02:21:34.226Z,1.80
2022-10-23T02:24:09.497Z,3.22
2022-10-23T02:26:54.072Z,5.47
2022-10-23T02:29:36.347Z,2.83
2022-10-23T02:32:03.848Z,2.17
2022-10-23T02:34:32.542Z,1.85
2022-10-23T02:37:00.705Z,2.38
2022-10-23T02:39:29.345Z,4.05
2022-10-23T02:42:35.671Z,5.70
2022-10-23T02:46:00.183Z,4.68
2022-10-23T02:51:49.270Z,5.47
2022-10-23T02:54:35.437Z,3.40
2022-10-23T02:57:31.144Z,4.15
2022-10-23T03:00:05.640Z,2.25
2022-10-23T03:05:59.180Z,13.15
2022-10-23T03:08:27.000Z,11.27
2022-10-23T03:10:54.512Z,13.30
2022-10-23T03:13:24.338Z,6.97
2022-10-23T03:15:53.110Z,7.55
2022-10-23T03:18:20.992Z,3.22
2022-10-23T03:20:51.036Z,4.03
2022-10-23T03:23:22.682Z,4.22
2022-10-23T03:25:50.497Z,3.88
2022-10-23T03:28:32.248Z,3.85
2022-10-23T03:31:02.236Z,3.30
2022-10-23T03:33:31.630Z,3.25
2022-10-23T03:36:08.024Z,3.38
2022-10-23T03:38:36.352Z,4.50
2022-10-23T03:41:05.243Z,5.15
2022-10-23T03:43:33.218Z,3.35
2022-10-23T03:46:02.064Z,2.97
2022-10-23T03:48:30.069Z,2.65
2022-10-23T03:50:59.448Z,2.63
2022-10-23T03:53:27.156Z,2.58
2022-10-23T03:55:54.715Z,2.10
2022-10-23T03:58:22.534Z,2.70
2022-10-23T04:00:52.781Z,2.80
2022-10-23T04:03:20.552Z,3.65
2022-10-23T04:05:50.070Z,3.60
2022-10-23T04:08:22.623Z,2.65
2022-10-23T04:10:55.180Z,2.72
2022-10-23T04:13:34.658Z,3.20
2022-10-23T04:16:02.456Z,3.78
2022-10-23T04:18:30.168Z,3.63
2022-10-23T04:20:57.798Z,3.22
2022-10-23T04:23:25.680Z,6.63
2022-10-23T04:25:58.054Z,3.70
2022-10-23T04:28:27.616Z,6.55
2022-10-23T04:30:55.585Z,5.55
2022-10-23T04:33:25.256Z,5.00
2022-10-23T04:35:53.282Z,6.47
2022-10-23T04:38:20.991Z,3.92
2022-10-23T04:43:22.748Z,3.70
2022-10-23T04:45:50.448Z,5.38
2022-10-23T04:48:18.556Z,3.50
2022-10-23T04:51:10.691Z,3.60
2022-10-23T04:53:56.776Z,7.15
2022-10-23T04:56:44.692Z,5.72
2022-10-23T04:59:16.812Z,5.65
2022-10-23T05:01:44.825Z,7.05
2022-10-23T05:04:14.439Z,3.28
2022-10-23T05:07:00.507Z,3.67
2022-10-23T05:09:40.972Z,5.00
2022-10-23T05:12:25.513Z,3.97
2022-10-23T05:14:54.508Z,3.90
2022-10-23T05:17:32.228Z,3.20
2022-10-23T05:20:03.534Z,3.95
2022-10-23T05:22:37.075Z,5.50
2022-10-23T05:25:09.665Z,4.05
2022-10-23T05:27:37.237Z,6.90
2022-10-23T05:30:10.901Z,5.05
2022-10-23T05:32:39.761Z,4.30
2022-10-23T05:35:13.161Z,3.63
2022-10-23T05:37:43.946Z,4.03
2022-10-23T05:40:18.142Z,3.08
2022-10-23T05:42:46.906Z,3.55
2022-10-23T05:45:18.440Z,3.95
2022-10-23T05:48:11.230Z,4.05
2022-10-23T05:53:50.095Z,3.38
2022-10-23T05:56:43.267Z,5.65
2022-10-23T05:59:22.966Z,3.15
2022-10-23T06:02:09.691Z,3.40
2022-10-23T06:04:50.749Z,4.18
2022-10-23T06:07:36.965Z,7.75
2022-10-23T06:10:07.640Z,4.95
2022-10-23T06:12:40.399Z,6.43
2022-10-23T06:15:11.329Z,5.07
2022-10-23T06:18:17.555Z,5.82
2022-10-23T06:21:01.667Z,5.18
2022-10-23T06:23:33.234Z,5.50
2022-10-23T06:26:21.126Z,3.95
2022-10-23T06:29:09.059Z,4.22
2022-10-23T06:31:37.234Z,3.65
2022-10-23T06:34:06.244Z,4.97
2022-10-23T06:36:34.055Z,5.20
2022-10-23T06:39:21.294Z,4.50
2022-10-23T06:42:09.014Z,5.72
2022-10-23T06:44:55.214Z,4.55
2022-10-23T06:47:41.431Z,5.13
2022-10-23T06:50:15.757Z,5.18
2022-10-23T06:52:47.697Z,4.75
2022-10-23T06:55:19.180Z,6.03
2022-10-23T06:57:47.429Z,4.00
2022-10-23T07:00:16.517Z,5.32
2022-10-23T07:02:51.702Z,7.88
2022-10-23T07:05:20.690Z,5.18
2022-10-23T07:07:48.630Z,5.45
2022-10-23T07:10:23.013Z,4.70
2022-10-23T07:13:01.048Z,5.03
2022-10-23T07:15:41.062Z,5.22
2022-10-23T07:18:14.696Z,4.55
2022-10-23T07:21:02.504Z,8.82
2022-10-23T07:23:31.933Z,5.63
2022-10-23T07:26:15.256Z,6.03
2022-10-23T07:28:46.366Z,4.60
2022-10-23T07:31:18.346Z,5.97
2022-10-23T07:34:04.997Z,10.57
2022-10-23T07:36:33.167Z,5.60
2022-10-23T07:39:00.650Z,6.60
2022-10-23T07:41:29.399Z,6.23
2022-10-23T07:43:56.822Z,4.90
2022-10-23T07:46:24.709Z,6.57
2022-10-23T07:48:53.303Z,5.57
2022-10-23T07:51:22.297Z,9.05
2022-10-23T07:53:56.577Z,12.57
2022-10-23T07:56:43.121Z,6.00
2022-10-23T07:59:17.104Z,8.18
2022-10-23T08:01:53.864Z,11.15
2022-10-23T08:04:27.347Z,11.63
2022-10-23T08:07:15.474Z,9.20
2022-10-23T08:09:45.671Z,11.07
2022-10-23T08:12:13.797Z,4.95
2022-10-23T08:14:41.674Z,6.68
2022-10-23T08:17:10.070Z,5.00
2022-10-23T08:20:13.654Z,4.65
2022-10-23T08:22:44.621Z,4.18
2022-10-23T08:25:17.735Z,3.90
2022-10-23T08:27:46.729Z,5.20
2022-10-23T08:30:15.776Z,4.68
2022-10-23T08:32:45.085Z,4.22
2022-10-23T08:35:14.388Z,4.90
2022-10-23T08:37:42.550Z,4.93
2022-10-23T08:40:20.299Z,4.93
2022-10-23T08:43:11.065Z,5.38
2022-10-23T08:46:00.135Z,4.55
2022-10-23T08:51:57.766Z,4.00
2022-10-23T08:54:46.324Z,4.47
2022-10-23T08:57:17.598Z,8.30
2022-10-23T09:00:14.968Z,12.07
2022-10-23T09:02:45.746Z,7.28
2022-10-23T09:05:45.989Z,6.28
2022-10-23T09:09:07.913Z,6.68
2022-10-23T09:12:08.841Z,6.10
2022-10-23T09:14:55.331Z,7.85
2022-10-23T09:17:33.486Z,8.80
2022-10-23T09:20:13.183Z,11.88
2022-10-23T09:22:42.507Z,8.35
2022-10-23T09:25:15.963Z,9.43
2022-10-23T09:27:56.796Z,6.85
2022-10-23T09:30:40.717Z,6.63
2022-10-23T09:33:27.169Z,11.60
2022-10-23T09:35:59.797Z,10.18
2022-10-23T09:38:39.303Z,7.40
2022-10-23T09:41:17.995Z,7.25
2022-10-23T09:43:46.952Z,6.95
2022-10-23T09:46:20.316Z,9.43
2022-10-23T09:49:00.885Z,7.43
2022-10-23T09:51:31.269Z,7.60
2022-10-23T09:54:00.692Z,8.25
2022-10-23T09:56:33.404Z,8.25
2022-10-23T09:59:13.454Z,6.10
2022-10-23T10:02:27.323Z,8.85
2022-10-23T10:05:31.405Z,7.03
2022-10-23T10:08:49.286Z,3.65
2022-10-23T10:11:44.347Z,1.90
2022-10-23T10:14:56.950Z,2.45
2022-10-23T10:18:02.336Z,2.50
2022-10-23T10:20:36.058Z,2.03
2022-10-23T10:23:29.077Z,4.00
2022-10-23T10:26:42.655Z,5.65
2022-10-23T10:29:41.762Z,1.15
2022-10-23T10:32:45.334Z,1.30
2022-10-23T10:35:38.179Z,0.98
2022-10-23T10:38:12.859Z,0.93
2022-10-23T10:41:12.560Z,2.72
2022-10-23T10:44:13.493Z,5.35
2022-10-23T10:47:28.520Z,6.82
2022-10-23T10:50:12.952Z,3.20
2022-10-23T10:53:23.434Z,5.78
2022-10-23T10:58:40.612Z,3.00
2022-10-23T11:01:41.159Z,1.15
2022-10-23T11:04:48.969Z,3.13
2022-10-23T11:07:24.042Z,5.18
2022-10-23T11:09:52.617Z,3.05
2022-10-23T11:12:29.641Z,4.13
2022-10-23T11:14:57.901Z,10.38
2022-10-23T11:17:39.623Z,4.13
2022-10-23T11:20:35.244Z,2.88
2022-10-23T11:23:28.084Z,3.90
2022-10-23T11:26:22.307Z,4.20
2022-10-23T11:29:13.758Z,3.90
2022-10-23T11:31:56.904Z,4.40
2022-10-23T11:35:15.601Z,2.55
2022-10-23T11:40:13.285Z,3.80
2022-10-23T11:42:41.416Z,3.63
2022-10-23T11:45:30.424Z,2.50
2022-10-23T11:48:25.329Z,2.47
2022-10-23T11:50:59.096Z,4.43
2022-10-23T11:53:32.028Z,3.45
2022-10-23T11:56:13.580Z,2.13
2022-10-23T11:58:49.244Z,1.98
2022-10-23T12:01:44.268Z,2.13
2022-10-23T12:04:14.927Z,2.00
2022-10-23T12:06:53.785Z,3.92
2022-10-23T12:12:07.547Z,11.68
2022-10-23T12:14:49.415Z,2.85
2022-10-23T12:17:22.899Z,4.47
2022-10-23T12:20:02.655Z,4.90
2022-10-23T12:22:51.940Z,3.03
2022-10-23T12:25:37.413Z,3.15
2022-10-23T12:28:59.405Z,5.45
2022-10-23T12:31:58.977Z,3.33
2022-10-23T12:34:26.369Z,3.20
2022-10-23T12:37:12.890Z,4.72
2022-10-23T12:39:40.876Z,3.88
2022-10-23T12:42:21.432Z,3.13
2022-10-23T12:45:20.077Z,3.17
2022-10-23T12:50:34.840Z,3.45
2022-10-23T12:53:07.742Z,4.53
2022-10-23T12:56:03.916Z,3.78
2022-10-23T12:58:35.003Z,2.05
2022-10-23T13:01:07.458Z,2.50
2022-10-23T13:03:36.069Z,2.25
2022-10-23T13:06:05.889Z,3.15
2022-10-23T13:08:47.673Z,2.45
2022-10-23T13:11:32.109Z,2.20
2022-10-23T13:14:13.079Z,2.03
2022-10-23T13:16:40.671Z,2.00
2022-10-23T13:19:24.620Z,4.63
2022-10-23T13:21:52.241Z,7.18
2022-10-23T13:24:22.203Z,3.20
2022-10-23T13:26:49.745Z,7.38
2022-10-23T13:29:31.637Z,2.78
2022-10-23T13:32:23.051Z,3.58
2022-10-23T13:35:04.123Z,2.75
2022-10-23T13:40:27.787Z,5.70
2022-10-23T13:42:57.328Z,3.72
2022-10-23T13:45:27.325Z,6.68
2022-10-23T13:47:55.515Z,4.65
2022-10-23T13:50:23.262Z,4.40
2022-10-23T13:52:50.762Z,4.25
2022-10-23T13:55:25.700Z,2.58
2022-10-23T13:57:53.807Z,4.70
2022-10-23T14:02:49.660Z,5.60
2022-10-23T14:05:17.441Z,3.05
2022-10-23T14:07:45.320Z,3.30
2022-10-23T14:10:13.417Z,2.97
2022-10-23T14:12:44.777Z,2.95
2022-10-23T14:15:13.177Z,2.92
2022-10-23T14:17:41.272Z,3.60
2022-10-23T14:20:10.057Z,4.10
2022-10-23T14:22:37.773Z,4.53
2022-10-23T14:25:06.308Z,3.22
2022-10-23T14:27:34.021Z,4.13
2022-10-23T14:30:02.638Z,3.08
2022-10-23T14:32:31.357Z,3.55
2022-10-23T14:37:26.938Z,3.33
2022-10-23T14:39:54.651Z,3.25
2022-10-23T14:42:22.749Z,5.00
2022-10-23T14:44:50.567Z,13.27
2022-10-23T14:47:21.489Z,4.78
2022-10-23T14:49:52.442Z,7.22
2022-10-23T14:52:20.091Z,4.00
2022-10-23T14:54:47.840Z,3.88
2022-10-23T14:57:17.938Z,6.20
2022-10-23T14:59:46.286Z,5.97
2022-10-23T15:02:14.298Z,5.70
2022-10-23T15:04:42.465Z,8.80
2022-10-23T15:07:10.044Z,12.35
2022-10-23T15:09:39.659Z,17.07
2022-10-23T15:12:07.886Z,13.20
2022-10-23T15:14:35.691Z,11.32
2022-10-23T15:17:03.820Z,9.48
2022-10-23T15:19:31.663Z,11.35
2022-10-23T15:21:59.186Z,12.75
2022-10-23T15:24:27.137Z,13.80
2022-10-23T15:26:54.614Z,10.00
2022-10-23T15:29:23.213Z,12.82
2022-10-23T15:31:59.149Z,11.70
2022-10-23T15:34:29.499Z,8.52
2022-10-23T15:36:57.810Z,7.78
2022-10-23T15:39:33.664Z,7.63
2022-10-23T15:42:04.251Z,11.43
2022-10-23T15:44:34.222Z,13.25
2022-10-23T15:47:01.854Z,9.27
2022-10-23T15:49:30.072Z,14.13
2022-10-23T15:51:58.829Z,12.13
2022-10-23T15:54:29.296Z,7.82
2022-10-23T15:57:01.643Z,12.63
2022-10-23T16:01:59.402Z,12.68
2022-10-23T16:04:28.674Z,10.20
2022-10-23T16:06:56.329Z,9.43
2022-10-23T16:09:24.260Z,12.52
2022-10-23T16:11:51.754Z,16.48
2022-10-23T16:14:19.644Z,18.80
2022-10-23T16:16:47.162Z,13.70
2022-10-23T16:19:14.991Z,9.70
2022-10-23T16:21:42.679Z,13.77
2022-10-23T16:24:11.660Z,12.95
2022-10-23T16:26:39.795Z,15.23
2022-10-23T16:29:09.555Z,15.27
2022-10-23T16:31:37.716Z,9.38
2022-10-23T16:34:06.957Z,12.43
2022-10-23T16:36:35.127Z,11.27
2022-10-23T16:39:21.410Z,8.80
2022-10-23T16:42:07.658Z,8.60
2022-10-23T16:44:54.270Z,6.68
2022-10-23T16:47:21.880Z,11.30
2022-10-23T16:49:49.601Z,12.98
2022-10-23T16:52:17.725Z,13.15
2022-10-23T16:54:45.606Z,6.47
2022-10-23T16:57:13.286Z,8.73
2022-10-23T16:59:43.897Z,6.40
2022-10-23T17:02:14.887Z,7.13
2022-10-23T17:04:42.840Z,8.23
2022-10-23T17:07:13.555Z,11.75
2022-10-23T17:09:43.792Z,17.33
2022-10-23T17:12:11.267Z,17.55
2022-10-23T17:14:40.578Z,20.95
2022-10-23T17:17:09.836Z,20.48
2022-10-23T17:19:45.452Z,21.17
2022-10-23T17:22:16.625Z,27.10
2022-10-23T17:24:47.381Z,19.23
2022-10-23T17:27:18.692Z,18.70
2022-10-23T17:29:46.382Z,18.17
2022-10-23T17:32:13.915Z,13.32
2022-10-23T17:34:41.829Z,12.18
2022-10-23T17:37:10.254Z,10.63
2022-10-23T17:39:37.943Z,8.65
2022-10-23T17:42:05.540Z,11.27
2022-10-23T17:44:33.348Z,9.23
2022-10-23T17:47:00.816Z,12.85
2022-10-23T17:49:28.761Z,12.85
2022-10-23T17:51:58.209Z,8.68
2022-10-23T17:54:27.553Z,8.30
2022-10-23T17:56:56.168Z,10.73
2022-10-23T17:59:24.400Z,9.63
2022-10-23T18:01:52.134Z,7.15
2022-10-23T18:04:21.214Z,12.00
2022-10-23T18:06:52.888Z,25.77
2022-10-23T18:09:23.163Z,11.15
2022-10-23T18:11:51.739Z,13.07
2022-10-23T18:14:21.726Z,12.00
2022-10-23T18:16:50.683Z,11.52
2022-10-23T18:19:21.324Z,17.80
2022-10-23T18:21:49.390Z,10.73
2022-10-23T18:24:17.982Z,11.48
2022-10-23T18:26:47.913Z,14.63
2022-10-23T18:29:17.553Z,14.70
2022-10-23T18:31:48.121Z,11.43
2022-10-23T18:34:23.746Z,18.38
2022-10-23T18:36:54.455Z,11.32
2022-10-23T18:39:25.368Z,14.82
2022-10-23T18:41:56.777Z,16.25
2022-10-23T18:44:29.008Z,14.50
2022-10-23T18:46:59.479Z,23.48
2022-10-23T18:49:28.164Z,11.02
2022-10-23T18:51:56.024Z,27.50
2022-10-23T18:54:26.596Z,16.63
2022-10-23T18:56:54.714Z,17.75
2022-10-23T18:59:23.624Z,16.40
2022-10-23T19:01:51.487Z,23.33
2022-10-23T19:04:19.805Z,17.35
2022-10-23T19:06:49.881Z,19.77
2022-10-23T19:09:18.814Z,15.88
2022-10-23T19:11:46.910Z,20.35
2022-10-23T19:14:14.872Z,13.03
2022-10-23T19:17:04.151Z,22.95
2022-10-23T19:20:09.784Z,18.33
2022-10-23T19:22:41.147Z,12.85
2022-10-23T19:25:15.357Z,16.10
2022-10-23T19:27:44.876Z,20.52
2022-10-23T19:30:19.330Z,16.25
2022-10-23T19:32:51.049Z,18.20
2022-10-23T19:35:21.197Z,23.83
2022-10-23T19:37:48.960Z,15.75
2022-10-23T19:40:17.043Z,19.45
2022-10-23T19:42:44.853Z,14.68
2022-10-23T19:45:15.090Z,15.05
2022-10-23T19:47:43.066Z,18.63
2022-10-23T19:50:12.384Z,24.20
2022-10-23T19:52:40.317Z,19.52
2022-10-23T19:55:09.047Z,15.10
2022-10-23T19:57:37.189Z,22.07
2022-10-23T20:00:07.551Z,20.43
2022-10-23T20:02:38.007Z,13.77
2022-10-23T20:05:07.498Z,17.90
2022-10-23T20:07:37.206Z,12.20
2022-10-23T20:10:08.339Z,11.95
2022-10-23T20:12:35.985Z,24.15
2022-10-23T20:15:04.011Z,20.52
2022-10-23T20:17:31.642Z,14.57
2022-10-23T20:19:59.381Z,13.63
2022-10-23T20:22:27.031Z,19.65
2022-10-23T20:25:27.708Z,15.43
2022-10-23T20:28:05.302Z,19.80
2022-10-23T20:30:42.584Z,15.63
2022-10-23T20:33:13.489Z,16.35
2022-10-23T20:35:42.325Z,18.35
2022-10-23T20:38:10.436Z,15.98
2022-10-23T20:40:38.607Z,28.17
2022-10-23T20:43:06.066Z,19.58
2022-10-23T20:45:34.579Z,20.42
2022-10-23T20:48:02.116Z,15.95
2022-10-23T20:50:29.922Z,13.98
2022-10-23T20:52:57.457Z,16.15
2022-10-23T20:55:25.259Z,17.58
2022-10-23T20:57:53.174Z,12.93
2022-10-23T21:00:21.372Z,9.83
2022-10-23T21:02:51.448Z,10.55
2022-10-23T21:05:20.179Z,12.63
2022-10-23T21:07:47.693Z,10.52
2022-10-23T21:10:15.513Z,13.75
2022-10-23T21:12:46.800Z,13.18
2022-10-23T21:15:17.892Z,6.95
2022-10-23T21:17:55.185Z,10.70
2022-10-23T21:20:30.337Z,13.10
2022-10-23T21:23:00.486Z,16.30
2022-10-23T21:25:28.303Z,13.32
2022-10-23T21:27:56.371Z,7.13
2022-10-23T21:30:24.383Z,15.00
2022-10-23T21:32:51.842Z,11.20
2022-10-23T21:35:20.581Z,7.65
2022-10-23T21:37:48.179Z,7.30
2022-10-23T21:40:16.047Z,9.43
2022-10-23T21:42:43.706Z,9.90
2022-10-23T21:45:11.554Z,11.27
2022-10-23T21:47:39.275Z,7.30
2022-10-23T21:50:07.720Z,6.88
2022-10-23T21:52:35.404Z,8.68
2022-10-23T21:55:04.170Z,9.55
2022-10-23T21:57:34.235Z,8.77
2022-10-23T22:00:02.462Z,7.72
2022-10-23T22:02:40.307Z,9.95
2022-10-23T22:05:08.385Z,8.77
2022-10-23T22:07:36.097Z,8.73
2022-10-23T22:10:04.385Z,13.40
2022-10-23T22:12:32.008Z,9.02
2022-10-23T22:14:59.776Z,7.53
2022-10-23T22:17:27.354Z,10.68
2022-10-23T22:19:55.261Z,8.20
2022-10-23T22:22:23.123Z,6.80
2022-10-23T22:24:50.995Z,11.90
2022-10-23T22:27:18.489Z,9.18
2022-10-23T22:29:46.317Z,6.53
2022-10-23T22:32:14.172Z,7.93
2022-10-23T22:34:52.214Z,13.63
2022-10-23T22:37:21.020Z,9.50
2022-10-23T22:39:53.032Z,7.67
2022-10-23T22:42:20.870Z,6.25
2022-10-23T22:44:48.640Z,8.98
2022-10-23T22:47:16.232Z,13.23
2022-10-23T22:49:44.042Z,10.57
2022-10-23T22:52:11.503Z,8.15
2022-10-23T22:54:39.383Z,9.07
2022-10-23T22:57:06.896Z,7.45
2022-10-23T22:59:34.670Z,10.23
2022-10-23T23:02:02.240Z,8.25
2022-10-23T23:04:38.723Z,9.63
2022-10-23T23:07:13.015Z,6.28
2022-10-23T23:09:43.686Z,9.77
2022-10-23T23:12:14.296Z,6.82
2022-10-23T23:14:43.020Z,10.48
2022-10-23T23:17:11.509Z,7.93
2022-10-23T23:19:39.586Z,8.65
2022-10-23T23:22:07.294Z,10.88
2022-10-23T23:24:35.188Z,20.40
2022-10-23T23:27:02.802Z,18.15
2022-10-23T23:29:30.703Z,14.32
2022-10-23T23:31:58.523Z,9.98
2022-10-23T23:34:26.508Z,13.35
2022-10-23T23:36:53.986Z,15.45
2022-10-23T23:39:21.866Z,9.05
2022-10-23T23:41:49.533Z,10.15
2022-10-23T23:44:17.276Z,8.45
2022-10-23T23:46:44.984Z,9.15
2022-10-23T23:49:12.735Z,9.48
2022-10-23T23:51:40.582Z,16.63
2022-10-23T23:54:08.526Z,11.45
2022-10-23T23:56:36.069Z,13.70
2022-10-23T23:59:03.969Z,9.48
